Search for airport 
image banner adimage banner adimage banner ad
image banner ad

KMRY - Monterey Rgnl

Located in Monterey, United States

ICAO - MRY, IATA - MRY

Data provided by Airmate  

General information

Coordinates: N36°35'13" W121°50'34"
Elevation is 257 feet MSL.
Magnetic variation is 15° East
View others Airports in California

Operational data

Special qualification required
Current time UTC:
Current local time:
Weather
METAR: KMRY 212154Z 26009KT 10SM CLR 30/10 A3006 RMK AO2 SLP187 T03000100
TAF: KMRY 211736Z 2118/2218 27005KT 6SM HZ FEW200 FM212100 31009KT 6SM HZ FEW200 FM220200 VRB04KT P6SM FEW007 FM220900 VRB03KT 3SM BR OVC005 FM221700 VRB04KT 6SM BR BKN005
View NOTAMs / SUP AIP / TFR affecting this airport [VIEW]
Communications frequencies: [VIEW]

Runways:

RWY identifierQFULength (ft)Width (ft)SurfaceLDA (ft)
10R113°7175150ASPH7000
28L293°7175150ASPH7000
10L113°350360ASPH3504
28R293°350360ASPH3504

Airport contact information

Address: Monterey United States

Other aviation service providers

Flight schools

Aerodynamic Aviation - Monterey

Aerodynamic Aviation - Monterey

Satellite view of KMRY